Time;durP1;ratioP1;P1;durP2;ratioP2;P2;SDS_P1;SDS_P2;PMS_P1;PMS_P2;Temp;Humidity;BMP_temperature;BMP_pressure;BME280_temperature;BME280_humidity;BME280_pressure;Samples;Min_cycle;Max_cycle;Signal;HPM_P1;HPM_P2
2022/03/28 00:01:35;;;;;;;18.88;8.10;;;;;;;;;;5052581;28;20044;-67
2022/03/28 00:04:40;;;;;;;15.98;7.43;;;;;;;;;;5052457;28;20310;-67
2022/03/28 00:07:45;;;;;;;16.20;6.63;;;;;;;;;;5052427;28;20515;-67
2022/03/28 00:10:50;;;;;;;18.08;7.90;;;;;;;;;;5052502;28;20476;-67
2022/03/28 00:13:54;;;;;;;17.63;7.65;;;;;;;;;;5052444;28;20051;-67
2022/03/28 00:16:58;;;;;;;21.58;7.93;;;;;;;;;;5052042;28;20052;-67
2022/03/28 00:20:04;;;;;;;19.42;7.68;;;;;;;;;;5052076;28;20040;-69
2022/03/28 00:23:08;;;;;;;14.15;7.88;;;;;;;;;;5052305;28;20044;-69
2022/03/28 00:26:12;;;;;;;21.58;7.93;;;;;;;;;;5052229;28;20067;-69
2022/03/28 00:29:17;;;;;;;19.20;8.20;;;;;;;;;;5052157;28;20052;-67
2022/03/28 00:32:21;;;;;;;20.48;7.30;;;;;;;;;;5051251;28;20055;-67
2022/03/28 00:35:25;;;;;;;17.27;7.25;;;;;;;;;;5052108;28;20044;-69
2022/03/28 00:38:30;;;;;;;20.20;7.53;;;;;;;;;;5051562;28;20052;-67
2022/03/28 00:41:34;;;;;;;19.45;7.95;;;;;;;;;;5052023;28;20588;-68
2022/03/28 00:44:38;;;;;;;21.88;8.07;;;;;;;;;;5051847;28;20039;-69
2022/03/28 00:47:43;;;;;;;19.92;9.50;;;;;;;;;;5051556;28;20051;-68
2022/03/28 00:50:47;;;;;;;19.55;8.23;;;;;;;;;;5051437;28;20040;-66
2022/03/28 00:53:51;;;;;;;22.00;8.02;;;;;;;;;;5051537;28;20048;-68
2022/03/28 00:56:55;;;;;;;18.65;8.48;;;;;;;;;;5051561;28;20044;-66
2022/03/28 01:00:00;;;;;;;20.45;8.43;;;;;;;;;;5051785;28;20444;-66
2022/03/28 01:03:05;;;;;;;18.50;8.90;;;;;;;;;;5051246;28;20036;-67
2022/03/28 01:06:09;;;;;;;17.85;8.35;;;;;;;;;;5051169;28;20051;-68
2022/03/28 01:09:14;;;;;;;20.75;8.73;;;;;;;;;;5051733;28;20480;-66
2022/03/28 01:12:18;;;;;;;26.08;8.98;;;;;;;;;;5051588;28;20052;-66
2022/03/28 01:15:22;;;;;;;22.48;8.30;;;;;;;;;;5050692;28;20056;-67
2022/03/28 01:18:27;;;;;;;15.30;5.97;;;;;;;;;;5051165;28;20044;-67
2022/03/28 01:21:31;;;;;;;14.98;4.75;;;;;;;;;;5051285;28;20043;-67
2022/03/28 01:24:36;;;;;;;16.38;4.97;;;;;;;;;;5051006;28;20409;-67
2022/03/28 01:27:40;;;;;;;18.90;5.03;;;;;;;;;;5050925;28;20064;-67
2022/03/28 01:30:44;;;;;;;15.93;4.32;;;;;;;;;;5050817;28;20044;-67
2022/03/28 01:33:49;;;;;;;10.23;3.95;;;;;;;;;;5050897;28;20055;-67
2022/03/28 01:36:53;;;;;;;13.45;3.53;;;;;;;;;;5050804;28;20052;-66
2022/03/28 01:39:58;;;;;;;16.70;4.20;;;;;;;;;;5050884;28;20044;-67
2022/03/28 01:43:02;;;;;;;13.63;3.70;;;;;;;;;;5050675;28;20047;-67
2022/03/28 01:46:06;;;;;;;15.52;3.50;;;;;;;;;;5050988;28;20036;-67
2022/03/28 01:49:11;;;;;;;10.23;3.25;;;;;;;;;;5050415;28;20051;-67
2022/03/28 01:52:16;;;;;;;12.13;3.33;;;;;;;;;;5050738;28;20056;-67
2022/03/28 01:55:20;;;;;;;10.13;3.10;;;;;;;;;;5049381;28;20143;-67
2022/03/28 01:58:25;;;;;;;12.40;3.78;;;;;;;;;;5050552;28;20059;-67
2022/03/28 02:01:29;;;;;;;8.23;2.90;;;;;;;;;;5050759;28;20055;-67
2022/03/28 02:04:33;;;;;;;11.23;3.53;;;;;;;;;;5050536;28;20040;-67
2022/03/28 02:07:41;;;;;;;11.02;3.50;;;;;;;;;;5050401;28;20513;-67
2022/03/28 02:10:45;;;;;;;10.27;2.92;;;;;;;;;;5050662;28;20052;-67
2022/03/28 02:13:50;;;;;;;13.00;4.03;;;;;;;;;;5049758;28;20056;-67
2022/03/28 02:17:13;;;;;;;12.55;3.70;;;;;;;;;;5050677;28;20052;-68
2022/03/28 02:20:17;;;;;;;10.27;3.63;;;;;;;;;;5050599;28;20048;-67
2022/03/28 02:23:21;;;;;;;8.73;3.35;;;;;;;;;;5050148;28;20048;-67
2022/03/28 02:26:25;;;;;;;15.15;4.40;;;;;;;;;;5050335;28;20037;-67
2022/03/28 02:29:29;;;;;;;15.32;3.72;;;;;;;;;;5050506;28;20052;-67
2022/03/28 02:32:34;;;;;;;12.65;3.72;;;;;;;;;;5050144;28;20044;-68
2022/03/28 02:35:38;;;;;;;11.45;3.65;;;;;;;;;;5050491;28;20064;-67
2022/03/28 02:38:42;;;;;;;9.90;4.03;;;;;;;;;;5050110;28;20090;-67
2022/03/28 02:41:46;;;;;;;14.43;3.63;;;;;;;;;;5050456;28;20566;-67
2022/03/28 02:44:51;;;;;;;10.27;3.63;;;;;;;;;;5050281;28;20291;-67
2022/03/28 02:47:56;;;;;;;8.80;3.00;;;;;;;;;;5050199;28;20064;-67
2022/03/28 02:51:00;;;;;;;14.77;4.25;;;;;;;;;;5050177;28;20041;-67
2022/03/28 02:54:05;;;;;;;13.32;3.10;;;;;;;;;;5051097;28;20524;-67
2022/03/28 02:57:09;;;;;;;12.02;3.63;;;;;;;;;;5053793;28;20060;-67
2022/03/28 03:00:14;;;;;;;12.05;3.55;;;;;;;;;;5053897;28;20048;-67
2022/03/28 03:03:18;;;;;;;13.80;3.58;;;;;;;;;;5053644;28;20048;-69
2022/03/28 03:06:23;;;;;;;12.13;2.88;;;;;;;;;;5054058;28;20115;-67
2022/03/28 03:09:27;;;;;;;10.73;3.33;;;;;;;;;;5053959;28;20048;-66
2022/03/28 03:12:31;;;;;;;14.30;3.10;;;;;;;;;;5053668;28;20036;-67
2022/03/28 03:15:36;;;;;;;20.35;3.60;;;;;;;;;;5054370;28;20052;-68
2022/03/28 03:18:40;;;;;;;10.90;2.90;;;;;;;;;;5053650;28;20040;-67
2022/03/28 03:21:46;;;;;;;9.93;3.40;;;;;;;;;;5053630;28;20048;-68
2022/03/28 03:24:50;;;;;;;14.68;3.15;;;;;;;;;;5052881;28;20488;-68
2022/03/28 03:27:55;;;;;;;14.98;2.83;;;;;;;;;;5053530;28;20056;-68
2022/03/28 03:30:59;;;;;;;16.27;3.33;;;;;;;;;;5053656;28;20507;-67
2022/03/28 03:34:03;;;;;;;12.18;3.50;;;;;;;;;;5053403;28;20040;-68
2022/03/28 03:37:07;;;;;;;18.83;4.80;;;;;;;;;;5053361;28;20048;-68
2022/03/28 03:40:15;;;;;;;11.32;3.28;;;;;;;;;;5053247;28;20040;-68
2022/03/28 03:43:19;;;;;;;18.83;3.10;;;;;;;;;;5053378;28;20052;-68
2022/03/28 03:46:23;;;;;;;12.15;2.90;;;;;;;;;;5053175;28;20044;-68
2022/03/28 03:49:28;;;;;;;12.57;3.38;;;;;;;;;;5053691;28;20544;-68
2022/03/28 03:52:32;;;;;;;13.75;3.33;;;;;;;;;;5053298;28;20048;-69
2022/03/28 03:55:37;;;;;;;15.40;3.63;;;;;;;;;;5053191;28;20108;-67
2022/03/28 03:58:41;;;;;;;10.65;3.42;;;;;;;;;;5053221;28;20044;-67
2022/03/28 04:01:45;;;;;;;11.85;3.35;;;;;;;;;;5053117;28;20044;-66
2022/03/28 04:04:49;;;;;;;14.02;4.65;;;;;;;;;;5052489;28;20044;-66
2022/03/28 04:07:54;;;;;;;9.63;3.20;;;;;;;;;;5052817;28;20055;-67
2022/03/28 04:10:58;;;;;;;14.20;3.17;;;;;;;;;;5052934;28;20382;-68
2022/03/28 04:14:02;;;;;;;15.98;4.18;;;;;;;;;;5052537;28;20084;-68
2022/03/28 04:17:07;;;;;;;7.50;3.50;;;;;;;;;;5052147;28;20052;-68
2022/03/28 04:20:13;;;;;;;14.52;3.50;;;;;;;;;;5052732;28;20033;-67
2022/03/28 04:23:17;;;;;;;14.10;4.72;;;;;;;;;;5052380;28;20045;-67
2022/03/28 04:26:21;;;;;;;13.65;4.40;;;;;;;;;;5052313;28;20396;-67
2022/03/28 04:29:26;;;;;;;14.02;3.72;;;;;;;;;;5052283;28;20068;-68
2022/03/28 04:32:30;;;;;;;11.35;3.60;;;;;;;;;;5052486;28;20048;-67
2022/03/28 04:35:34;;;;;;;15.85;4.38;;;;;;;;;;5052411;28;20037;-67
2022/03/28 04:38:39;;;;;;;11.25;4.47;;;;;;;;;;5052413;28;20413;-69
2022/03/28 04:41:43;;;;;;;12.85;4.63;;;;;;;;;;5052031;28;20040;-68
2022/03/28 04:44:47;;;;;;;15.63;5.07;;;;;;;;;;5051887;28;20044;-68
2022/03/28 04:47:52;;;;;;;14.10;4.57;;;;;;;;;;5051175;28;20057;-68
2022/03/28 04:50:56;;;;;;;13.15;4.53;;;;;;;;;;5052120;28;20507;-68
2022/03/28 04:54:00;;;;;;;11.27;5.15;;;;;;;;;;5051133;28;20048;-67
2022/03/28 04:57:05;;;;;;;13.60;4.63;;;;;;;;;;5052495;28;20048;-68
2022/03/28 05:00:10;;;;;;;15.18;5.00;;;;;;;;;;5051747;28;20040;-68
2022/03/28 05:03:15;;;;;;;13.98;4.43;;;;;;;;;;5051467;28;20040;-68
2022/03/28 05:06:19;;;;;;;10.52;4.50;;;;;;;;;;5051831;28;20396;-67
2022/03/28 05:09:23;;;;;;;16.30;5.05;;;;;;;;;;5051040;28;20048;-68
2022/03/28 05:12:28;;;;;;;16.73;4.78;;;;;;;;;;5050831;28;20044;-70
2022/03/28 05:15:32;;;;;;;12.88;4.25;;;;;;;;;;5051307;28;20063;-67
2022/03/28 05:18:36;;;;;;;14.07;4.57;;;;;;;;;;5051124;28;20044;-67
2022/03/28 05:21:41;;;;;;;16.33;4.82;;;;;;;;;;5051174;28;20040;-67
2022/03/28 05:24:45;;;;;;;12.00;5.43;;;;;;;;;;5051127;28;20040;-67
2022/03/28 05:27:49;;;;;;;12.30;4.85;;;;;;;;;;5051224;28;20056;-68
2022/03/28 05:30:57;;;;;;;14.25;5.65;;;;;;;;;;5050921;28;20040;-68
2022/03/28 05:34:01;;;;;;;12.40;5.95;;;;;;;;;;5050898;28;20052;-68
2022/03/28 05:37:07;;;;;;;14.57;5.78;;;;;;;;;;5050985;28;20044;-67
2022/03/28 05:40:11;;;;;;;16.00;5.90;;;;;;;;;;5051102;28;20056;-66
2022/03/28 05:43:16;;;;;;;12.05;4.70;;;;;;;;;;5050785;28;20108;-66
2022/03/28 05:46:21;;;;;;;24.45;5.90;;;;;;;;;;5050890;28;20059;-67
2022/03/28 05:49:25;;;;;;;18.40;5.90;;;;;;;;;;5051059;28;20047;-67
2022/03/28 05:52:29;;;;;;;13.15;5.97;;;;;;;;;;5051005;28;20503;-68
2022/03/28 05:55:34;;;;;;;18.85;5.22;;;;;;;;;;5050822;28;20036;-68
2022/03/28 05:58:38;;;;;;;13.93;5.25;;;;;;;;;;5050959;28;20040;-67
2022/03/28 06:01:43;;;;;;;19.23;5.30;;;;;;;;;;5050247;28;20397;-68
2022/03/28 06:04:47;;;;;;;17.20;5.05;;;;;;;;;;5050988;28;20052;-68
2022/03/28 06:07:52;;;;;;;16.80;6.22;;;;;;;;;;5050657;28;20290;-66
2022/03/28 06:10:56;;;;;;;18.30;6.35;;;;;;;;;;5050125;28;20059;-68
2022/03/28 06:14:01;;;;;;;17.60;5.55;;;;;;;;;;5049708;28;20056;-67
2022/03/28 06:17:05;;;;;;;18.40;5.75;;;;;;;;;;5050611;28;20056;-64
2022/03/28 06:20:10;;;;;;;14.93;5.82;;;;;;;;;;5050496;28;20044;-66
2022/03/28 06:23:15;;;;;;;16.08;5.78;;;;;;;;;;5050731;28;20393;-67
2022/03/28 06:26:19;;;;;;;22.60;5.90;;;;;;;;;;5050826;28;20369;-68
2022/03/28 06:29:23;;;;;;;16.88;6.65;;;;;;;;;;5052095;28;20523;-66
2022/03/28 06:32:28;;;;;;;14.05;6.10;;;;;;;;;;5054294;28;20043;-66
2022/03/28 06:35:32;;;;;;;18.65;7.10;;;;;;;;;;5053625;28;20056;-67
2022/03/28 06:38:37;;;;;;;15.90;7.22;;;;;;;;;;5054460;28;20036;-68
2022/03/28 06:41:42;;;;;;;21.35;7.95;;;;;;;;;;5054466;28;20052;-66
2022/03/28 06:44:47;;;;;;;17.50;7.18;;;;;;;;;;5053495;28;20044;-67
2022/03/28 06:47:51;;;;;;;17.27;7.00;;;;;;;;;;5054354;28;20064;-68
2022/03/28 06:50:56;;;;;;;18.73;7.55;;;;;;;;;;5054251;28;20043;-67
2022/03/28 06:54:03;;;;;;;23.35;7.15;;;;;;;;;;5053903;28;20052;-68
2022/03/28 06:57:08;;;;;;;18.67;7.15;;;;;;;;;;5054281;28;20036;-68
2022/03/28 07:00:13;;;;;;;19.45;8.45;;;;;;;;;;5053755;28;20044;-66
2022/03/28 07:03:17;;;;;;;19.38;7.43;;;;;;;;;;5052888;28;20048;-69
2022/03/28 07:06:21;;;;;;;18.13;6.82;;;;;;;;;;5053664;28;20052;-67
2022/03/28 07:09:26;;;;;;;19.40;7.45;;;;;;;;;;5053553;28;20048;-67
2022/03/28 07:12:31;;;;;;;19.38;7.65;;;;;;;;;;5053475;28;20051;-68
2022/03/28 07:15:35;;;;;;;19.58;6.18;;;;;;;;;;5053634;28;20060;-66
2022/03/28 07:18:41;;;;;;;18.10;7.13;;;;;;;;;;5053613;28;20044;-67
2022/03/28 07:21:45;;;;;;;27.10;8.77;;;;;;;;;;5053691;28;20048;-67
2022/03/28 07:24:50;;;;;;;20.40;8.68;;;;;;;;;;5053537;28;20591;-67
2022/03/28 07:27:55;;;;;;;16.25;7.13;;;;;;;;;;5053529;28;20163;-67
2022/03/28 07:31:01;;;;;;;15.55;6.43;;;;;;;;;;5052246;28;20052;-67
2022/03/28 07:37:28;;;;;;;14.20;6.00;;;;;;;;;;5053255;28;20040;-66
2022/03/28 07:40:32;;;;;;;13.65;5.80;;;;;;;;;;5053611;28;20060;-68
2022/03/28 07:43:37;;;;;;;13.63;6.40;;;;;;;;;;5053008;28;20036;-68
2022/03/28 07:46:41;;;;;;;13.05;6.03;;;;;;;;;;5053461;28;20420;-67
2022/03/28 07:49:45;;;;;;;15.13;6.18;;;;;;;;;;5052990;28;20048;-67
2022/03/28 07:52:50;;;;;;;10.55;5.72;;;;;;;;;;5052845;28;20507;-68
2022/03/28 07:55:54;;;;;;;10.45;5.72;;;;;;;;;;5052865;28;20052;-66
2022/03/28 07:58:59;;;;;;;14.40;6.45;;;;;;;;;;5052957;28;20051;-66
2022/03/28 08:02:03;;;;;;;13.95;6.40;;;;;;;;;;5053159;28;20389;-68
2022/03/28 08:05:08;;;;;;;18.05;6.05;;;;;;;;;;5052933;28;20432;-67
2022/03/28 08:08:12;;;;;;;13.25;6.15;;;;;;;;;;5052650;28;20404;-67
2022/03/28 08:11:17;;;;;;;18.83;6.85;;;;;;;;;;5052549;28;20523;-66
2022/03/28 08:14:21;;;;;;;12.50;7.13;;;;;;;;;;5052395;28;20044;-67
2022/03/28 08:17:25;;;;;;;16.42;7.05;;;;;;;;;;5052502;28;20060;-67
2022/03/28 08:20:29;;;;;;;13.73;6.32;;;;;;;;;;5052637;28;20500;-66
2022/03/28 08:23:34;;;;;;;15.80;7.10;;;;;;;;;;5052613;28;20396;-68
2022/03/28 08:26:38;;;;;;;21.23;7.88;;;;;;;;;;5052381;28;20059;-66
2022/03/28 08:29:42;;;;;;;16.35;7.20;;;;;;;;;;5052485;28;20048;-66
2022/03/28 08:32:47;;;;;;;18.95;7.80;;;;;;;;;;5052385;28;20067;-67
2022/03/28 08:35:51;;;;;;;18.58;7.68;;;;;;;;;;5051032;28;20047;-67
2022/03/28 08:38:56;;;;;;;14.45;7.65;;;;;;;;;;5052218;28;20044;-68
2022/03/28 08:42:00;;;;;;;20.85;10.73;;;;;;;;;;5051858;28;20069;-67
2022/03/28 08:45:04;;;;;;;22.33;10.20;;;;;;;;;;5052020;28;20044;-68
2022/03/28 08:48:10;;;;;;;22.48;9.45;;;;;;;;;;5051499;28;20071;-69
2022/03/28 08:51:18;;;;;;;19.98;7.07;;;;;;;;;;5051037;28;20044;-68
2022/03/28 08:54:23;;;;;;;15.88;6.32;;;;;;;;;;5051788;28;20048;-68
2022/03/28 08:57:27;;;;;;;11.98;5.15;;;;;;;;;;5051721;28;20192;-67
2022/03/28 09:00:32;;;;;;;9.23;4.88;;;;;;;;;;5051731;28;20084;-68
2022/03/28 09:03:37;;;;;;;11.45;5.50;;;;;;;;;;5051605;28;20041;-66
2022/03/28 09:06:42;;;;;;;10.95;5.55;;;;;;;;;;5051378;28;20047;-67
2022/03/28 09:09:47;;;;;;;15.27;5.68;;;;;;;;;;5051564;28;20433;-67
2022/03/28 09:12:58;;;;;;;11.52;5.68;;;;;;;;;;5051245;28;20527;-67
2022/03/28 09:16:06;;;;;;;;;;;;;;;;;;5051342;28;20056;-68
2022/03/28 09:19:11;;;;;;;13.23;5.78;;;;;;;;;;5050422;28;19916;-67
2022/03/28 09:22:19;;;;;;;14.07;6.90;;;;;;;;;;5049809;28;20040;-67
2022/03/28 09:25:23;;;;;;;10.57;5.50;;;;;;;;;;5050704;28;20056;-68
2022/03/28 09:28:46;;;;;;;19.45;7.72;;;;;;;;;;5049417;28;20056;-66
2022/03/28 09:31:50;;;;;;;12.18;7.30;;;;;;;;;;5050149;28;20400;-67
2022/03/28 09:35:19;;;;;;;16.98;7.50;;;;;;;;;;5050486;28;20500;-67
2022/03/28 09:38:23;;;;;;;12.77;6.45;;;;;;;;;;5050439;28;20044;-69
2022/03/28 09:41:28;;;;;;;14.57;7.00;;;;;;;;;;5050389;28;20496;-68
2022/03/28 09:44:42;;;;;;;13.23;5.80;;;;;;;;;;5050495;28;20047;-67
2022/03/28 09:47:59;;;;;;;8.80;5.18;;;;;;;;;;5049807;28;20306;-68
2022/03/28 09:51:07;;;;;;;8.68;4.72;;;;;;;;;;5050193;28;20041;-69
2022/03/28 09:54:24;;;;;;;8.05;4.75;;;;;;;;;;5050000;28;20480;-67
2022/03/28 09:57:31;;;;;;;18.83;6.40;;;;;;;;;;5050340;28;20037;-67
2022/03/28 10:00:35;;;;;;;12.77;5.60;;;;;;;;;;5050493;28;20044;-68
2022/03/28 10:03:40;;;;;;;9.98;5.03;;;;;;;;;;5048917;28;20059;-66
2022/03/28 10:06:44;;;;;;;12.80;5.65;;;;;;;;;;5049999;28;20041;-68
2022/03/28 10:09:50;;;;;;;9.55;4.72;;;;;;;;;;5049808;28;20061;-67
2022/03/28 10:12:55;;;;;;;14.35;4.85;;;;;;;;;;5049945;28;20040;-67
2022/03/28 10:16:00;;;;;;;14.55;5.13;;;;;;;;;;5006683;28;1243523;-68
2022/03/28 10:19:05;;;;;;;9.65;4.38;;;;;;;;;;5050479;28;20059;-67
2022/03/28 10:22:13;;;;;;;14.77;5.13;;;;;;;;;;5050422;28;20041;-68
2022/03/28 10:25:21;;;;;;;13.60;4.65;;;;;;;;;;5050436;28;20539;-67
2022/03/28 10:28:25;;;;;;;12.10;4.88;;;;;;;;;;5050688;28;20051;-67
2022/03/28 10:31:34;;;;;;;15.35;4.43;;;;;;;;;;5050706;28;20400;-67
2022/03/28 10:34:41;;;;;;;18.17;4.50;;;;;;;;;;5050540;28;20048;-67
2022/03/28 10:37:50;;;;;;;13.93;4.85;;;;;;;;;;5050053;28;20064;-68
2022/03/28 10:40:58;;;;;;;11.52;4.18;;;;;;;;;;5049705;28;20048;-67
2022/03/28 10:44:03;;;;;;;10.90;4.63;;;;;;;;;;5050304;28;20386;-67
2022/03/28 10:47:07;;;;;;;8.70;4.53;;;;;;;;;;5050049;28;20060;-65
2022/03/28 10:50:13;;;;;;;8.70;4.55;;;;;;;;;;5050315;28;20037;-67
2022/03/28 10:53:39;;;;;;;10.77;5.18;;;;;;;;;;5049646;28;20029;-67
2022/03/28 10:56:45;;;;;;;12.77;5.30;;;;;;;;;;5050560;28;20044;-67
2022/03/28 11:00:05;;;;;;;16.85;5.30;;;;;;;;;;5050334;28;20036;-66
2022/03/28 11:03:09;;;;;;;12.13;4.80;;;;;;;;;;5049410;28;20036;-67
2022/03/28 11:06:15;;;;;;;17.42;5.85;;;;;;;;;;5050313;28;20120;-67
2022/03/28 11:09:38;;;;;;;12.52;4.25;;;;;;;;;;5050028;28;20060;-67
2022/03/28 11:12:42;;;;;;;10.25;4.22;;;;;;;;;;5049752;28;20526;-67
2022/03/28 11:15:48;;;;;;;9.10;5.10;;;;;;;;;;5051923;28;20504;-67
2022/03/28 11:19:18;;;;;;;11.23;5.55;;;;;;;;;;5053625;28;20374;-66
2022/03/28 11:22:41;;;;;;;11.05;5.38;;;;;;;;;;5053517;28;20044;-68
2022/03/28 11:25:47;;;;;;;12.98;6.65;;;;;;;;;;5053423;28;20044;-67
2022/03/28 11:28:52;;;;;;;13.85;6.15;;;;;;;;;;5053521;28;20535;-66
2022/03/28 11:31:57;;;;;;;9.70;5.55;;;;;;;;;;5053273;28;20052;-64
2022/03/28 11:35:01;;;;;;;10.27;5.22;;;;;;;;;;5053501;28;20044;-64
2022/03/28 11:38:05;;;;;;;11.52;4.88;;;;;;;;;;5053195;28;20051;-65
2022/03/28 11:41:12;;;;;;;10.48;4.40;;;;;;;;;;5052996;28;20040;-65
2022/03/28 11:44:16;;;;;;;8.88;5.00;;;;;;;;;;5052885;28;20048;-65
2022/03/28 11:47:21;;;;;;;17.75;6.22;;;;;;;;;;5053033;28;20489;-66
2022/03/28 11:50:28;;;;;;;16.35;5.47;;;;;;;;;;5053007;28;20563;-65
2022/03/28 11:53:33;;;;;;;15.63;6.45;;;;;;;;;;5052801;28;20044;-65
2022/03/28 11:58:14;;;;;;;14.30;5.22;;;;;;;;;;5053055;28;20044;-65
2022/03/28 12:00:11;;;;;;;12.40;4.82;;;;;;;;;;5052786;28;20067;-66
2022/03/28 12:03:18;;;;;;;13.35;5.82;;;;;;;;;;5053169;28;20045;-64
2022/03/28 12:06:33;;;;;;;18.75;6.15;;;;;;;;;;5051939;28;20048;-65
2022/03/28 12:09:41;;;;;;;16.13;6.15;;;;;;;;;;5052653;28;20052;-64
2022/03/28 12:12:46;;;;;;;10.55;6.43;;;;;;;;;;5052693;28;20052;-66
2022/03/28 12:15:52;;;;;;;14.48;5.88;;;;;;;;;;5052455;28;20068;-65
2022/03/28 12:18:59;;;;;;;11.02;5.35;;;;;;;;;;5052534;28;20043;-66
2022/03/28 12:22:13;;;;;;;13.15;5.07;;;;;;;;;;5052531;28;20052;-64
2022/03/28 12:25:24;;;;;;;13.00;5.50;;;;;;;;;;5052496;28;20036;-65
2022/03/28 12:28:29;;;;;;;12.52;5.47;;;;;;;;;;5052309;28;20040;-65
2022/03/28 12:31:33;;;;;;;10.40;5.60;;;;;;;;;;5051402;28;20040;-65
2022/03/28 12:34:38;;;;;;;22.25;6.82;;;;;;;;;;5052241;28;20044;-65
2022/03/28 12:37:42;;;;;;;13.15;6.22;;;;;;;;;;5052589;28;20143;-66
2022/03/28 12:40:50;;;;;;;23.60;7.65;;;;;;;;;;5052156;28;20044;-65
2022/03/28 12:43:55;;;;;;;22.35;6.05;;;;;;;;;;5052040;28;20107;-66
2022/03/28 12:47:03;;;;;;;17.25;5.28;;;;;;;;;;5052302;28;20049;-65
2022/03/28 12:50:08;;;;;;;12.60;4.40;;;;;;;;;;5051912;28;20052;-65
2022/03/28 12:53:16;;;;;;;14.75;4.82;;;;;;;;;;5051932;28;20044;-65
2022/03/28 12:56:21;;;;;;;8.45;4.05;;;;;;;;;;5052184;28;20052;-65
2022/03/28 12:59:28;;;;;;;11.75;3.83;;;;;;;;;;5051961;28;20037;-65
2022/03/28 13:02:32;;;;;;;7.55;3.42;;;;;;;;;;5051496;28;20051;-66
2022/03/28 13:05:37;;;;;;;15.45;4.75;;;;;;;;;;5051233;28;20045;-65
2022/03/28 13:08:42;;;;;;;13.18;4.60;;;;;;;;;;5051770;28;20127;-65
2022/03/28 13:11:46;;;;;;;15.00;4.50;;;;;;;;;;5051686;28;20048;-66
2022/03/28 13:14:52;;;;;;;17.35;4.90;;;;;;;;;;5051488;28;20048;-66
2022/03/28 13:18:10;;;;;;;11.98;5.07;;;;;;;;;;5051735;28;20063;-66
2022/03/28 13:21:14;;;;;;;12.88;5.53;;;;;;;;;;5051341;28;20063;-65
2022/03/28 13:24:19;;;;;;;9.80;4.93;;;;;;;;;;5051589;28;20052;-66
2022/03/28 13:30:55;;;;;;;14.43;4.68;;;;;;;;;;5051421;28;20056;-66
2022/03/28 13:34:00;;;;;;;12.73;4.97;;;;;;;;;;5051203;28;20512;-69
2022/03/28 13:37:07;;;;;;;11.43;4.65;;;;;;;;;;5051350;28;20048;-65
2022/03/28 13:40:11;;;;;;;13.90;4.50;;;;;;;;;;5051147;28;20044;-66
2022/03/28 13:43:16;;;;;;;17.92;5.38;;;;;;;;;;5051328;28;20115;-66
2022/03/28 13:46:20;;;;;;;13.70;5.03;;;;;;;;;;5051399;28;20048;-66
2022/03/28 13:49:25;;;;;;;12.32;5.10;;;;;;;;;;5050872;28;20060;-67
2022/03/28 13:52:29;;;;;;;17.35;5.90;;;;;;;;;;5050936;28;20496;-67
2022/03/28 13:55:34;;;;;;;20.58;6.90;;;;;;;;;;5049957;28;20052;-65
2022/03/28 13:58:40;;;;;;;14.20;6.97;;;;;;;;;;5051395;28;20397;-66
2022/03/28 14:01:44;;;;;;;12.32;5.75;;;;;;;;;;5050731;28;20045;-66
2022/03/28 14:04:48;;;;;;;15.32;5.57;;;;;;;;;;5050654;28;20500;-66
2022/03/28 14:07:52;;;;;;;16.95;6.63;;;;;;;;;;5050265;28;20623;-67
2022/03/28 14:10:57;;;;;;;15.23;6.72;;;;;;;;;;5050739;28;20044;-64
2022/03/28 14:14:02;;;;;;;17.30;6.72;;;;;;;;;;5050595;28;20056;-64
2022/03/28 14:17:08;;;;;;;22.42;6.68;;;;;;;;;;5049732;28;20409;-64
2022/03/28 14:20:15;;;;;;;15.20;5.97;;;;;;;;;;5050258;28;20051;-65
2022/03/28 14:23:19;;;;;;;14.77;7.05;;;;;;;;;;5050579;28;20048;-65
2022/03/28 14:26:23;;;;;;;13.20;7.20;;;;;;;;;;5050763;28;20047;-68
2022/03/28 14:29:28;;;;;;;13.27;7.30;;;;;;;;;;5049843;28;20052;-67
2022/03/28 14:32:32;;;;;;;19.98;8.10;;;;;;;;;;5050223;28;20044;-68
2022/03/28 14:35:37;;;;;;;17.55;7.18;;;;;;;;;;5050813;28;20051;-67
2022/03/28 14:38:41;;;;;;;13.43;6.78;;;;;;;;;;5049443;28;20044;-67
2022/03/28 14:41:46;;;;;;;22.58;6.88;;;;;;;;;;5050103;28;20044;-65
2022/03/28 14:44:51;;;;;;;13.27;6.22;;;;;;;;;;5050529;28;20044;-67
2022/03/28 14:47:55;;;;;;;13.50;6.53;;;;;;;;;;5050323;28;20044;-65
2022/03/28 14:50:59;;;;;;;19.42;7.35;;;;;;;;;;5051983;28;20044;-65
2022/03/28 14:54:04;;;;;;;17.38;6.78;;;;;;;;;;5054115;28;20043;-67
2022/03/28 14:57:08;;;;;;;17.90;7.45;;;;;;;;;;5053888;28;20056;-66
2022/03/28 15:00:13;;;;;;;16.75;8.52;;;;;;;;;;5053271;28;20052;-66
2022/03/28 15:03:18;;;;;;;22.35;10.27;;;;;;;;;;5054213;28;20507;-66
2022/03/28 15:06:23;;;;;;;16.27;8.55;;;;;;;;;;5053778;28;20040;-68
2022/03/28 15:09:28;;;;;;;19.27;8.65;;;;;;;;;;5053726;28;20051;-71
2022/03/28 15:12:33;;;;;;;27.27;6.93;;;;;;;;;;5053261;28;20040;-67
2022/03/28 15:15:38;;;;;;;14.13;6.38;;;;;;;;;;5053485;28;20069;-67
2022/03/28 15:18:43;;;;;;;19.15;6.70;;;;;;;;;;5053530;28;20096;-67
2022/03/28 15:21:47;;;;;;;15.05;6.35;;;;;;;;;;5052397;28;20040;-67
2022/03/28 15:24:51;;;;;;;14.32;5.38;;;;;;;;;;5053350;28;20059;-68
2022/03/28 15:27:56;;;;;;;19.15;6.43;;;;;;;;;;5053293;28;20044;-67
2022/03/28 15:31:19;;;;;;;28.77;5.97;;;;;;;;;;5053461;28;20405;-67
2022/03/28 15:34:25;;;;;;;14.55;6.88;;;;;;;;;;5053598;28;20040;-66
2022/03/28 15:37:29;;;;;;;19.00;8.25;;;;;;;;;;5053426;28;20500;-67
2022/03/28 15:40:33;;;;;;;14.40;7.03;;;;;;;;;;5041090;28;20063;-66
2022/03/28 15:43:38;;;;;;;19.58;6.90;;;;;;;;;;5052487;28;20488;-67
2022/03/28 15:46:45;;;;;;;14.52;6.50;;;;;;;;;;5053023;28;20048;-67
2022/03/28 15:49:50;;;;;;;20.05;6.75;;;;;;;;;;5053156;28;20075;-67
2022/03/28 15:52:54;;;;;;;18.80;8.40;;;;;;;;;;5051910;28;20044;-66
2022/03/28 15:55:59;;;;;;;14.00;6.65;;;;;;;;;;5052795;28;20377;-67
2022/03/28 15:59:05;;;;;;;20.08;7.47;;;;;;;;;;5052992;28;20047;-66
2022/03/28 16:02:10;;;;;;;16.00;8.52;;;;;;;;;;5052511;28;20048;-66
2022/03/28 16:05:16;;;;;;;18.35;8.82;;;;;;;;;;5052663;28;20487;-67
2022/03/28 16:08:21;;;;;;;22.77;8.20;;;;;;;;;;5052431;28;20048;-66
2022/03/28 16:11:25;;;;;;;22.00;9.15;;;;;;;;;;5052628;28;20056;-65
2022/03/28 16:14:30;;;;;;;25.48;12.73;;;;;;;;;;5052344;28;20112;-69
2022/03/28 16:17:38;;;;;;;23.35;11.73;;;;;;;;;;5052311;28;20484;-67
2022/03/28 16:20:42;;;;;;;21.42;9.48;;;;;;;;;;5052451;28;20405;-67
2022/03/28 16:23:47;;;;;;;25.58;10.82;;;;;;;;;;5052239;28;20048;-67
2022/03/28 16:26:51;;;;;;;29.40;11.63;;;;;;;;;;5052612;28;20044;-68
2022/03/28 16:29:55;;;;;;;23.02;10.25;;;;;;;;;;5052460;28;20433;-66
2022/03/28 16:32:59;;;;;;;24.48;9.18;;;;;;;;;;5052341;28;20491;-66
2022/03/28 16:36:04;;;;;;;20.77;9.40;;;;;;;;;;5051940;28;20051;-66
2022/03/28 16:39:11;;;;;;;22.48;9.70;;;;;;;;;;5052029;28;20052;-66
2022/03/28 16:42:16;;;;;;;24.63;10.55;;;;;;;;;;5051240;28;20044;-68
2022/03/28 16:45:21;;;;;;;19.05;9.65;;;;;;;;;;5052052;28;20068;-68
2022/03/28 16:48:25;;;;;;;22.08;10.15;;;;;;;;;;5051601;28;20045;-68
2022/03/28 16:51:29;;;;;;;25.20;11.07;;;;;;;;;;5051862;28;20428;-66
2022/03/28 16:54:33;;;;;;;21.48;11.75;;;;;;;;;;5051695;28;20107;-66
2022/03/28 16:57:39;;;;;;;22.30;12.70;;;;;;;;;;5051574;28;20040;-66
2022/03/28 17:00:45;;;;;;;18.85;12.52;;;;;;;;;;5052179;28;20047;-69
2022/03/28 17:03:49;;;;;;;35.60;15.32;;;;;;;;;;5053101;28;20044;-68
2022/03/28 17:06:54;;;;;;;27.40;14.00;;;;;;;;;;5051879;28;20052;-68
2022/03/28 17:09:59;;;;;;;37.47;18.50;;;;;;;;;;5051724;28;20059;-68
2022/03/28 17:13:04;;;;;;;38.33;23.15;;;;;;;;;;5051373;28;20096;-68
2022/03/28 17:16:09;;;;;;;42.70;23.67;;;;;;;;;;5050690;28;20060;-68
2022/03/28 17:19:14;;;;;;;32.75;18.70;;;;;;;;;;5050625;28;20044;-68
2022/03/28 17:22:18;;;;;;;25.00;17.17;;;;;;;;;;5051236;28;20417;-69
2022/03/28 17:25:23;;;;;;;34.17;17.25;;;;;;;;;;5051402;28;20064;-68
2022/03/28 17:28:27;;;;;;;28.50;13.02;;;;;;;;;;5051422;28;20061;-68
2022/03/28 17:31:31;;;;;;;39.28;21.33;;;;;;;;;;5050456;28;20547;-68
2022/03/28 17:34:36;;;;;;;27.92;14.50;;;;;;;;;;5051309;28;20402;-69
2022/03/28 17:37:42;;;;;;;28.17;14.30;;;;;;;;;;5051587;28;20061;-68
2022/03/28 17:40:46;;;;;;;30.90;12.30;;;;;;;;;;5050092;28;20044;-68
2022/03/28 17:43:51;;;;;;;21.38;11.45;;;;;;;;;;5050937;28;20063;-68
2022/03/28 17:46:55;;;;;;;31.27;12.80;;;;;;;;;;5050998;28;20040;-68
2022/03/28 17:49:59;;;;;;;30.58;13.82;;;;;;;;;;5049848;28;20060;-65
2022/03/28 17:53:05;;;;;;;25.80;15.63;;;;;;;;;;5050497;28;20056;-66
2022/03/28 17:56:09;;;;;;;29.90;17.33;;;;;;;;;;5050580;28;20048;-66
2022/03/28 17:59:15;;;;;;;32.80;17.70;;;;;;;;;;5050523;28;20052;-67
2022/03/28 18:02:19;;;;;;;35.75;19.55;;;;;;;;;;5050252;28;20051;-67
2022/03/28 18:05:23;;;;;;;58.25;38.13;;;;;;;;;;5050557;28;20514;-66
2022/03/28 18:08:28;;;;;;;60.13;36.45;;;;;;;;;;5050450;28;20044;-66
2022/03/28 18:11:33;;;;;;;48.25;30.23;;;;;;;;;;5050563;28;20392;-66
2022/03/28 18:14:37;;;;;;;56.03;34.45;;;;;;;;;;5049683;28;20072;-67
2022/03/28 18:17:41;;;;;;;50.08;30.70;;;;;;;;;;5050734;28;20051;-66
2022/03/28 18:20:45;;;;;;;52.97;29.08;;;;;;;;;;5050377;28;20044;-66